This is the latest recevied weather packets stored in our database for station/object dl1wer-13. If no packets are shown the sender has not sent any weather packets the latest 10 day(s).
| Time | Temp. | Humidity | Pressure | Rain* | Wind** | Luminosity | Snow |
|---|---|---|---|---|---|---|---|
| 1777981821 | 18.89° C | 60% | 1034.5 hPa | 0 mm | - | - | - |
| 1777981221 | 20° C | 53% | 1034.2 hPa | 0 mm | - | - | - |
| 1777980622 | 20° C | 50% | 1034.1 hPa | 0 mm | - | - | - |
| 1777980022 | 20.56° C | 51% | 1034.2 hPa | 0 mm | - | - | - |
| 1777979422 | 20° C | 52% | 1034.1 hPa | 0 mm | - | - | - |
| 1777978822 | 20° C | 53% | 1033.9 hPa | 0 mm | - | - | - |
| 1777978221 | 20° C | 53% | 1034.2 hPa | 0 mm | - | - | - |
| 1777977621 | 20° C | 53% | 1034.1 hPa | 0 mm | - | - | - |
| 1777977022 | 20° C | 51% | 1034.1 hPa | 0 mm | - | - | - |
| 1777976422 | 19.44° C | 51% | 1034.1 hPa | 0 mm | - | - | - |
| 1777975821 | 19.44° C | 50% | 1034.3 hPa | 0 mm | - | - | - |
| 1777975222 | 19.44° C | 47% | 1034.2 hPa | 0 mm | - | - | - |
| 1777974621 | 20° C | 50% | 1034.4 hPa | 0 mm | - | - | - |
| 1777974020 | 21.11° C | 54% | 1034.5 hPa | 0 mm | - | - | - |
| 1777973422 | 20.56° C | 55% | 1034.3 hPa | 0 mm | - | - | - |
| 1777972821 | 20° C | 56% | 1034.5 hPa | 0 mm | - | - | - |
| 1777972222 | 20° C | 60% | 1034.7 hPa | 0 mm | - | - | - |
| 1777971622 | 18.89° C | 60% | 1034.7 hPa | 0 mm | - | - | - |
| 1777971021 | 18.33° C | 60% | 1034.8 hPa | 0 mm | - | - | - |
| 1777970421 | 19.44° C | 60% | 1034.7 hPa | 0 mm | - | - | - |
| 1777969822 | 18.89° C | 63% | 1034.9 hPa | 0 mm | - | - | - |
| 1777969221 | 17.22° C | 67% | 1035.1 hPa | 0 mm | - | - | - |
| 1777968622 | 16.67° C | 71% | 1035.3 hPa | 0 mm | - | - | - |
| 1777968022 | 16.11° C | 71% | 1035.1 hPa | 0 mm | - | - | - |
| 1777967421 | 16.11° C | 70% | 1035.1 hPa | 0 mm | - | - | - |
* Rain latest hour (hover to see other rain measurements)
** Current wind speed in m/s (hover to see current wind gust speed)